createdAt,value
2023-10-21T00:01:15.162Z,5.40
2023-10-21T00:03:43.495Z,5.90
2023-10-21T00:06:11.864Z,4.50
2023-10-21T00:08:40.274Z,4.90
2023-10-21T00:11:10.719Z,5.20
2023-10-21T00:13:39.092Z,5.20
2023-10-21T00:16:07.241Z,5.50
2023-10-21T00:18:35.472Z,4.30
2023-10-21T00:21:04.634Z,4.90
2023-10-21T00:23:33.045Z,4.80
2023-10-21T00:26:04.665Z,4.80
2023-10-21T00:28:33.979Z,4.80
2023-10-21T00:31:07.247Z,5.20
2023-10-21T00:33:35.387Z,4.70
2023-10-21T00:36:05.236Z,4.80
2023-10-21T00:38:33.855Z,6.00
2023-10-21T00:41:02.184Z,4.90
2023-10-21T00:43:33.715Z,5.50
2023-10-21T00:46:07.750Z,4.70
2023-10-21T00:48:36.472Z,5.00
2023-10-21T00:51:05.079Z,5.00
2023-10-21T00:53:35.019Z,5.80
2023-10-21T00:56:04.166Z,4.90
2023-10-21T00:58:32.638Z,4.90
2023-10-21T01:01:04.032Z,4.80
2023-10-21T01:03:32.486Z,4.50
2023-10-21T01:06:01.258Z,4.70
2023-10-21T01:08:29.539Z,4.80
2023-10-21T01:10:59.839Z,4.50
2023-10-21T01:13:29.144Z,4.90
2023-10-21T01:15:57.418Z,4.40
2023-10-21T01:18:26.833Z,4.40
2023-10-21T01:20:55.172Z,5.20
2023-10-21T01:23:23.382Z,4.30
2023-10-21T01:25:52.030Z,4.90
2023-10-21T01:28:20.739Z,4.10
2023-10-21T01:30:49.559Z,4.60
2023-10-21T01:33:17.794Z,4.90
2023-10-21T01:35:47.594Z,5.80
2023-10-21T01:38:19.690Z,4.80
2023-10-21T01:40:48.706Z,6.10
2023-10-21T01:43:17.056Z,4.10
2023-10-21T01:45:45.170Z,5.30
2023-10-21T01:48:13.386Z,4.00
2023-10-21T01:50:41.663Z,5.00
2023-10-21T01:53:10.075Z,4.70
2023-10-21T01:55:38.396Z,4.80
2023-10-21T01:58:06.505Z,4.30
2023-10-21T02:00:35.236Z,4.70
2023-10-21T02:03:04.564Z,5.60
2023-10-21T02:05:32.967Z,5.30
2023-10-21T02:08:01.527Z,5.50
2023-10-21T02:10:29.692Z,5.50
2023-10-21T02:12:57.967Z,4.20
2023-10-21T02:15:26.039Z,5.50
2023-10-21T02:17:54.261Z,4.80
2023-10-21T02:20:22.533Z,4.70
2023-10-21T02:22:50.665Z,4.40
2023-10-21T02:25:20.794Z,4.40
2023-10-21T02:27:49.063Z,4.40
2023-10-21T02:30:17.925Z,4.10
2023-10-21T02:32:47.250Z,4.50
2023-10-21T02:35:16.361Z,5.40
2023-10-21T02:37:44.689Z,4.00
2023-10-21T02:40:18.890Z,4.70
2023-10-21T02:42:47.166Z,4.00
2023-10-21T02:45:15.315Z,5.20
2023-10-21T02:47:43.495Z,4.60
2023-10-21T02:50:11.680Z,4.60
2023-10-21T02:52:39.855Z,4.90
2023-10-21T02:55:08.639Z,5.20
2023-10-21T02:57:36.832Z,4.10
2023-10-21T03:00:07.184Z,5.20
2023-10-21T03:02:35.694Z,5.20
2023-10-21T03:05:04.593Z,5.00
2023-10-21T03:07:32.683Z,4.60
2023-10-21T03:10:01.693Z,4.50
2023-10-21T03:12:30.384Z,5.00
2023-10-21T03:14:59.430Z,4.90
2023-10-21T03:17:28.849Z,3.60
2023-10-21T03:19:56.932Z,5.00
2023-10-21T03:22:27.044Z,5.10
2023-10-21T03:24:55.222Z,5.30
2023-10-21T03:27:23.436Z,4.20
2023-10-21T03:29:51.783Z,4.30
2023-10-21T03:32:19.926Z,5.20
2023-10-21T03:34:48.098Z,5.60
2023-10-21T03:37:16.918Z,5.60
2023-10-21T03:39:45.433Z,4.70
2023-10-21T03:42:13.552Z,5.00
2023-10-21T03:44:41.968Z,6.80
2023-10-21T03:47:10.034Z,5.10
2023-10-21T03:49:38.231Z,4.80
2023-10-21T03:52:07.701Z,5.10
2023-10-21T03:54:35.991Z,5.50
2023-10-21T03:57:04.641Z,4.90
2023-10-21T03:59:33.925Z,5.10
2023-10-21T04:02:01.932Z,5.20
2023-10-21T04:04:30.038Z,5.20
2023-10-21T04:06:58.222Z,5.50
2023-10-21T04:09:28.094Z,5.10
2023-10-21T04:11:57.068Z,5.00
2023-10-21T04:14:25.177Z,4.70
2023-10-21T04:16:53.492Z,4.80
2023-10-21T04:19:21.759Z,5.10
2023-10-21T04:21:49.883Z,4.60
2023-10-21T04:24:18.097Z,5.60
2023-10-21T04:26:46.252Z,5.00
2023-10-21T04:29:17.039Z,4.60
2023-10-21T04:31:45.173Z,5.40
2023-10-21T04:34:13.846Z,5.00
2023-10-21T04:36:41.879Z,5.80
2023-10-21T04:39:10.089Z,4.70
2023-10-21T04:41:38.191Z,4.20
2023-10-21T04:44:06.712Z,4.30
2023-10-21T04:46:35.331Z,4.50
2023-10-21T04:49:05.221Z,5.40
2023-10-21T04:51:33.416Z,4.60
2023-10-21T04:54:01.576Z,5.40
2023-10-21T04:56:29.796Z,5.40
2023-10-21T04:58:58.237Z,4.60
2023-10-21T05:01:26.325Z,5.60
2023-10-21T05:03:54.748Z,4.60
2023-10-21T05:06:23.549Z,4.90
2023-10-21T05:08:51.882Z,4.50
2023-10-21T05:11:20.156Z,4.60
2023-10-21T05:13:48.308Z,4.60
2023-10-21T05:16:16.590Z,4.10
2023-10-21T05:18:44.816Z,5.90
2023-10-21T05:21:12.952Z,4.30
2023-10-21T05:23:41.322Z,4.90
2023-10-21T05:26:09.690Z,5.30
2023-10-21T05:28:38.036Z,5.10
2023-10-21T05:31:08.945Z,4.80
2023-10-21T05:33:37.487Z,4.60
2023-10-21T05:36:05.887Z,4.40
2023-10-21T05:38:34.158Z,5.10
2023-10-21T05:41:02.213Z,4.10
2023-10-21T05:43:30.535Z,4.20
2023-10-21T05:46:03.914Z,4.30
2023-10-21T05:48:32.355Z,4.20
2023-10-21T05:51:04.104Z,4.80
2023-10-21T05:53:32.275Z,4.70
2023-10-21T05:56:00.371Z,3.60
2023-10-21T05:58:33.021Z,3.80
2023-10-21T06:01:10.275Z,3.50
2023-10-21T06:06:07.499Z,3.50
2023-10-21T06:08:35.787Z,3.70
2023-10-21T06:11:04.091Z,3.60
2023-10-21T06:13:32.278Z,3.90
2023-10-21T06:16:00.428Z,3.20
2023-10-21T06:18:28.712Z,3.90
2023-10-21T06:20:57.225Z,3.60
2023-10-21T06:23:25.578Z,3.60
2023-10-21T06:25:53.842Z,4.90
2023-10-21T06:28:23.178Z,4.50
2023-10-21T06:30:51.301Z,3.90
2023-10-21T06:33:19.619Z,3.50
2023-10-21T06:35:48.329Z,3.90
2023-10-21T06:38:16.620Z,4.00
2023-10-21T06:41:02.528Z,4.10
2023-10-21T06:43:33.955Z,3.90
2023-10-21T06:46:02.186Z,3.70
2023-10-21T06:48:31.290Z,4.30
2023-10-21T06:51:00.538Z,3.30
2023-10-21T06:53:28.745Z,3.90
2023-10-21T06:55:57.562Z,4.20
2023-10-21T06:58:28.052Z,4.30
2023-10-21T07:00:56.782Z,4.00
2023-10-21T07:03:25.026Z,3.90
2023-10-21T07:05:53.425Z,3.80
2023-10-21T07:08:22.225Z,3.70
2023-10-21T07:10:54.163Z,4.40
2023-10-21T07:13:22.423Z,3.80
2023-10-21T07:15:52.705Z,3.20
2023-10-21T07:18:21.050Z,3.70
2023-10-21T07:20:57.681Z,3.60
2023-10-21T07:23:25.983Z,3.80
2023-10-21T07:25:55.055Z,3.40
2023-10-21T07:28:23.159Z,3.70
2023-10-21T07:30:53.538Z,2.80
2023-10-21T07:33:23.088Z,3.40
2023-10-21T07:35:55.405Z,2.90
2023-10-21T07:38:24.557Z,3.90
2023-10-21T07:40:52.752Z,2.90
2023-10-21T07:43:21.496Z,3.30
2023-10-21T07:45:50.341Z,3.70
2023-10-21T07:48:18.593Z,2.80
2023-10-21T07:50:53.419Z,3.00
2023-10-21T07:53:21.986Z,3.20
2023-10-21T07:55:50.919Z,3.10
2023-10-21T07:58:19.124Z,2.90
2023-10-21T08:00:47.488Z,3.90
2023-10-21T08:03:15.878Z,3.20
2023-10-21T08:05:44.389Z,2.90
2023-10-21T08:08:12.661Z,3.60
2023-10-21T08:10:40.723Z,2.50
2023-10-21T08:13:09.003Z,3.80
2023-10-21T08:15:37.083Z,3.30
2023-10-21T08:18:05.542Z,3.40
2023-10-21T08:20:33.904Z,3.40
2023-10-21T08:23:02.360Z,3.10
2023-10-21T08:25:30.410Z,2.90
2023-10-21T08:27:59.966Z,2.20
2023-10-21T08:30:28.922Z,2.60
2023-10-21T08:32:57.022Z,2.70
2023-10-21T08:35:25.278Z,2.50
2023-10-21T08:37:56.764Z,2.00
2023-10-21T08:40:26.103Z,2.40
2023-10-21T08:43:01.982Z,2.10
2023-10-21T08:46:07.979Z,2.10
2023-10-21T08:48:39.470Z,2.70
2023-10-21T08:51:27.513Z,1.90
2023-10-21T08:54:00.591Z,1.90
2023-10-21T08:56:31.845Z,1.60
2023-10-21T08:59:00.643Z,1.70
2023-10-21T09:01:29.482Z,1.80
2023-10-21T09:03:58.848Z,2.00
2023-10-21T09:06:27.173Z,1.80
2023-10-21T09:08:55.718Z,1.70
2023-10-21T09:11:29.230Z,1.70
2023-10-21T09:14:00.450Z,3.00
2023-10-21T09:16:32.225Z,2.00
2023-10-21T09:19:01.064Z,2.00
2023-10-21T09:21:40.567Z,2.40
2023-10-21T09:24:34.720Z,2.20
2023-10-21T09:27:04.715Z,2.50
2023-10-21T09:29:33.054Z,2.10
2023-10-21T09:32:01.373Z,2.70
2023-10-21T09:34:33.324Z,3.10
2023-10-21T09:37:06.591Z,2.30
2023-10-21T09:39:42.504Z,3.30
2023-10-21T09:42:10.804Z,2.60
2023-10-21T09:44:39.793Z,2.70
2023-10-21T09:47:09.403Z,2.30
2023-10-21T09:49:41.916Z,2.70
2023-10-21T09:52:16.308Z,3.40
2023-10-21T09:55:00.146Z,2.30
2023-10-21T09:57:29.300Z,2.40
2023-10-21T09:59:59.891Z,2.00
2023-10-21T10:02:28.132Z,1.50
2023-10-21T10:04:56.924Z,2.20
2023-10-21T10:07:39.921Z,1.50
2023-10-21T10:10:14.428Z,1.50
2023-10-21T10:12:50.932Z,1.60
2023-10-21T10:15:29.374Z,1.80
2023-10-21T10:17:57.758Z,1.10
2023-10-21T10:20:27.562Z,1.30
2023-10-21T10:23:11.329Z,1.80
2023-10-21T10:25:48.116Z,1.30
2023-10-21T10:28:20.516Z,1.50
2023-10-21T10:30:53.660Z,1.40
2023-10-21T10:33:29.805Z,1.30
2023-10-21T10:35:59.784Z,1.40
2023-10-21T10:38:35.469Z,1.90
2023-10-21T10:43:40.540Z,1.50
2023-10-21T10:46:10.013Z,1.50
2023-10-21T10:48:40.708Z,1.40
2023-10-21T10:51:19.880Z,1.40
2023-10-21T10:53:54.245Z,2.00
2023-10-21T10:56:22.919Z,1.70
2023-10-21T10:58:51.207Z,1.80
2023-10-21T11:01:29.367Z,1.50
2023-10-21T11:04:02.720Z,1.90
2023-10-21T11:06:33.036Z,1.60
2023-10-21T11:09:01.562Z,1.40
2023-10-21T11:11:29.799Z,1.50
2023-10-21T11:13:58.015Z,1.70
2023-10-21T11:16:26.799Z,2.00
2023-10-21T11:18:56.058Z,1.40
2023-10-21T11:21:53.515Z,2.00
2023-10-21T11:24:23.558Z,2.00
2023-10-21T11:26:52.366Z,1.80
2023-10-21T11:29:21.297Z,2.00
2023-10-21T11:31:49.638Z,2.40
2023-10-21T11:34:21.292Z,2.10
2023-10-21T11:36:49.947Z,1.80
2023-10-21T11:39:32.103Z,1.60
2023-10-21T11:42:01.283Z,1.50
2023-10-21T11:44:34.024Z,1.50
2023-10-21T11:47:08.043Z,1.20
2023-10-21T11:49:44.718Z,1.90
2023-10-21T11:52:14.436Z,2.00
2023-10-21T11:54:50.350Z,1.60
2023-10-21T11:57:54.854Z,1.30
2023-10-21T12:00:33.164Z,2.00
2023-10-21T12:03:20.324Z,1.10
2023-10-21T12:06:07.377Z,2.10
2023-10-21T12:09:12.624Z,1.50
2023-10-21T12:11:53.538Z,1.70
2023-10-21T12:14:40.389Z,2.10
2023-10-21T12:17:29.019Z,1.70
2023-10-21T12:19:57.072Z,1.50
2023-10-21T12:22:44.041Z,1.60
2023-10-21T12:25:30.727Z,1.30
2023-10-21T12:28:08.267Z,1.40
2023-10-21T12:30:54.799Z,1.40
2023-10-21T12:33:42.611Z,1.80
2023-10-21T12:36:23.088Z,1.70
2023-10-21T12:39:09.774Z,1.10
2023-10-21T12:41:39.620Z,1.70
2023-10-21T12:44:15.266Z,1.60
2023-10-21T12:49:25.941Z,1.50
2023-10-21T12:51:56.412Z,1.10
2023-10-21T12:54:25.108Z,1.70
2023-10-21T12:56:53.296Z,1.50
2023-10-21T12:59:22.012Z,1.70
2023-10-21T13:01:57.285Z,1.30
2023-10-21T13:04:30.007Z,1.40
2023-10-21T13:06:58.134Z,1.50
2023-10-21T13:09:31.247Z,1.40
2023-10-21T13:12:02.041Z,1.50
2023-10-21T13:14:30.370Z,1.70
2023-10-21T13:16:58.700Z,1.60
2023-10-21T13:19:28.488Z,1.60
2023-10-21T13:21:58.523Z,1.60
2023-10-21T13:24:34.749Z,1.90
2023-10-21T13:27:07.819Z,1.80
2023-10-21T13:29:37.434Z,1.50
2023-10-21T13:32:05.730Z,1.40
2023-10-21T13:34:34.038Z,2.00
2023-10-21T13:37:02.647Z,1.50
2023-10-21T13:39:30.828Z,1.90
2023-10-21T13:42:00.148Z,1.50
2023-10-21T13:44:30.079Z,2.10
2023-10-21T13:46:58.139Z,1.40
2023-10-21T13:49:27.810Z,2.10
2023-10-21T13:51:55.929Z,1.60
2023-10-21T13:54:24.074Z,1.70
2023-10-21T13:56:52.251Z,1.60
2023-10-21T13:59:22.166Z,1.40
2023-10-21T14:01:50.347Z,1.40
2023-10-21T14:04:24.437Z,1.40
2023-10-21T14:06:53.700Z,1.60
2023-10-21T14:09:25.352Z,1.50
2023-10-21T14:11:53.901Z,1.90
2023-10-21T14:14:22.776Z,1.80
2023-10-21T14:16:50.914Z,1.80
2023-10-21T14:19:20.855Z,1.90
2023-10-21T14:21:52.082Z,1.90
2023-10-21T14:24:20.762Z,1.70
2023-10-21T14:26:49.264Z,2.10
2023-10-21T14:29:17.871Z,2.10
2023-10-21T14:31:48.737Z,1.80
2023-10-21T14:34:17.984Z,1.70
2023-10-21T14:36:46.969Z,1.80
2023-10-21T14:39:15.516Z,1.90
2023-10-21T14:41:43.605Z,2.00
2023-10-21T14:44:11.883Z,2.70
2023-10-21T14:46:40.245Z,3.80
2023-10-21T14:49:09.217Z,3.80
2023-10-21T14:51:42.620Z,4.30
2023-10-21T14:54:11.070Z,5.10
2023-10-21T14:56:39.361Z,5.20
2023-10-21T14:59:07.463Z,5.20
2023-10-21T15:01:36.453Z,4.50
2023-10-21T15:04:08.481Z,5.30
2023-10-21T15:06:37.178Z,5.20
2023-10-21T15:09:05.672Z,4.50
2023-10-21T15:11:34.199Z,4.50
2023-10-21T15:14:02.471Z,4.60
2023-10-21T15:16:30.684Z,3.80
2023-10-21T15:18:58.861Z,4.10
2023-10-21T15:21:27.175Z,3.40
2023-10-21T15:23:57.490Z,3.40
2023-10-21T15:26:25.815Z,3.60
2023-10-21T15:28:54.058Z,4.60
2023-10-21T15:31:22.286Z,3.90
2023-10-21T15:33:50.665Z,3.80
2023-10-21T15:36:19.295Z,5.00
2023-10-21T15:38:53.690Z,4.10
2023-10-21T15:41:24.046Z,4.30
2023-10-21T15:43:53.345Z,3.80
2023-10-21T15:46:21.817Z,4.50
2023-10-21T15:48:50.065Z,4.10
2023-10-21T15:51:18.343Z,4.20
2023-10-21T15:53:47.300Z,7.80
2023-10-21T15:56:15.764Z,5.00
2023-10-21T15:58:43.930Z,5.90
2023-10-21T16:01:15.459Z,4.80
2023-10-21T16:03:44.045Z,4.80
2023-10-21T16:06:13.284Z,3.70
2023-10-21T16:08:41.616Z,4.70
2023-10-21T16:11:09.963Z,5.20
2023-10-21T16:13:59.473Z,5.80
2023-10-21T16:16:34.091Z,5.60
2023-10-21T16:19:06.270Z,6.90
2023-10-21T16:21:34.863Z,7.00
2023-10-21T16:24:04.340Z,7.80
2023-10-21T16:26:32.916Z,7.70
2023-10-21T16:29:01.025Z,7.50
2023-10-21T16:31:29.307Z,8.90
2023-10-21T16:33:57.558Z,8.40
2023-10-21T16:36:25.781Z,7.10
2023-10-21T16:38:54.478Z,7.00
2023-10-21T16:41:23.374Z,7.60
2023-10-21T16:43:53.502Z,148.60
2023-10-21T16:46:21.877Z,123.20
2023-10-21T16:48:50.449Z,120.70
2023-10-21T16:51:19.258Z,101.90
2023-10-21T17:01:07.330Z,51.30
2023-10-21T17:03:39.666Z,41.40
2023-10-21T17:06:07.211Z,33.20
2023-10-21T17:08:36.561Z,19.50
2023-10-21T17:11:04.581Z,15.40
2023-10-21T17:13:31.845Z,15.20
2023-10-21T17:15:58.816Z,14.00
2023-10-21T17:18:25.953Z,12.80
2023-10-21T17:20:52.852Z,11.80
2023-10-21T17:23:19.660Z,10.80
2023-10-21T17:36:21.684Z,13.70
2023-10-21T17:38:50.169Z,11.10
2023-10-21T17:41:18.289Z,9.50
2023-10-21T17:43:47.719Z,9.40
2023-10-21T17:46:15.889Z,7.70
2023-10-21T17:48:44.133Z,8.50
2023-10-21T17:51:12.783Z,8.80
2023-10-21T17:53:40.927Z,7.70
2023-10-21T17:56:10.660Z,7.50
2023-10-21T17:58:38.813Z,8.70
2023-10-21T18:01:07.695Z,7.40
2023-10-21T18:03:37.702Z,9.00
2023-10-21T18:06:07.421Z,8.30
2023-10-21T18:08:35.565Z,8.30
2023-10-21T18:11:11.516Z,7.60
2023-10-21T18:13:45.560Z,7.40
2023-10-21T18:16:16.373Z,7.90
2023-10-21T18:18:45.255Z,6.10
2023-10-21T18:21:13.436Z,7.20
2023-10-21T18:23:41.633Z,8.80
2023-10-21T18:26:09.723Z,9.10
2023-10-21T18:28:37.951Z,9.10
2023-10-21T18:31:06.192Z,8.50
2023-10-21T18:33:34.313Z,13.70
2023-10-21T18:36:02.665Z,23.60
2023-10-21T18:38:30.772Z,10.50
2023-10-21T18:40:58.894Z,6.60
2023-10-21T18:43:27.051Z,6.60
2023-10-21T18:45:58.015Z,6.00
2023-10-21T18:48:26.228Z,5.40
2023-10-21T18:50:58.746Z,5.60
2023-10-21T18:53:27.364Z,5.90
2023-10-21T18:55:55.595Z,5.70
2023-10-21T18:58:23.806Z,5.10
2023-10-21T19:00:57.203Z,4.10
2023-10-21T19:03:25.602Z,9.60
2023-10-21T19:05:54.224Z,8.20
2023-10-21T19:08:22.313Z,4.80
2023-10-21T19:10:50.591Z,4.90
2023-10-21T19:13:19.072Z,4.50
2023-10-21T19:15:47.230Z,3.90
2023-10-21T19:18:16.206Z,4.60
2023-10-21T19:20:44.347Z,3.70
2023-10-21T19:23:12.461Z,3.50
2023-10-21T19:25:46.283Z,3.60
2023-10-21T19:28:14.478Z,3.60
2023-10-21T19:30:42.747Z,3.30
2023-10-21T19:33:11.053Z,3.20
2023-10-21T19:35:39.384Z,4.00
2023-10-21T19:38:07.546Z,4.50
2023-10-21T19:40:39.216Z,3.40
2023-10-21T19:43:08.749Z,4.30
2023-10-21T19:45:46.391Z,4.10
2023-10-21T19:48:14.641Z,4.80
2023-10-21T19:50:44.588Z,4.30
2023-10-21T19:53:12.846Z,3.50
2023-10-21T19:55:41.072Z,3.80
2023-10-21T19:58:09.159Z,4.60
2023-10-21T20:00:37.383Z,3.80
2023-10-21T20:03:05.787Z,3.90
2023-10-21T20:05:35.009Z,4.80
2023-10-21T20:08:03.165Z,4.10
2023-10-21T20:10:31.349Z,3.60
2023-10-21T20:12:59.684Z,3.30
2023-10-21T20:15:27.895Z,3.30
2023-10-21T20:17:56.595Z,3.20
2023-10-21T20:20:24.883Z,3.90
2023-10-21T20:22:53.097Z,4.10
2023-10-21T20:25:21.799Z,4.50
2023-10-21T20:27:49.987Z,4.00
2023-10-21T20:30:18.248Z,3.90
2023-10-21T20:32:49.789Z,4.00
2023-10-21T20:37:52.555Z,7.10
2023-10-21T20:40:20.750Z,7.70
2023-10-21T20:42:48.849Z,6.00
2023-10-21T20:45:17.119Z,5.00
2023-10-21T20:47:45.202Z,4.70
2023-10-21T20:50:13.721Z,5.10
2023-10-21T20:52:41.867Z,5.00
2023-10-21T20:55:15.227Z,5.20
2023-10-21T20:57:43.985Z,5.90
2023-10-21T21:00:12.610Z,5.80
2023-10-21T21:02:41.064Z,5.60
2023-10-21T21:05:15.866Z,5.70
2023-10-21T21:10:16.083Z,7.20
2023-10-21T21:12:45.812Z,7.80
2023-10-21T21:15:14.246Z,8.40
2023-10-21T21:17:42.303Z,9.00
2023-10-21T21:20:10.880Z,7.90
2023-10-21T21:22:39.937Z,9.10
2023-10-21T21:25:08.999Z,9.20
2023-10-21T21:27:38.160Z,9.10
2023-10-21T21:30:09.360Z,8.80
2023-10-21T21:32:37.579Z,9.40
2023-10-21T21:35:07.340Z,9.80
2023-10-21T21:37:35.634Z,10.90
2023-10-21T21:40:05.641Z,10.80
2023-10-21T21:42:35.114Z,11.20
2023-10-21T21:45:04.628Z,11.20
2023-10-21T21:47:36.151Z,11.10
2023-10-21T21:50:05.701Z,10.80
2023-10-21T21:52:34.747Z,11.30
2023-10-21T21:55:02.968Z,10.50
2023-10-21T21:57:31.168Z,10.80
2023-10-21T21:59:59.302Z,9.20
2023-10-21T22:02:28.881Z,9.70
2023-10-21T22:04:57.063Z,10.00
2023-10-21T22:07:26.266Z,8.80
2023-10-21T22:09:54.776Z,8.10
2023-10-21T22:12:22.900Z,8.10
2023-10-21T22:14:51.122Z,8.60
2023-10-21T22:17:19.240Z,7.70
2023-10-21T22:19:48.165Z,8.10
2023-10-21T22:22:16.259Z,7.30
2023-10-21T22:24:45.040Z,6.40
2023-10-21T22:27:18.542Z,7.20
2023-10-21T22:29:46.797Z,7.20
2023-10-21T22:32:14.957Z,6.20
2023-10-21T22:34:43.051Z,6.30
2023-10-21T22:37:11.099Z,5.70
2023-10-21T22:39:39.894Z,5.90
2023-10-21T22:42:08.111Z,5.40
2023-10-21T22:44:38.342Z,5.80
2023-10-21T22:47:09.685Z,5.90
2023-10-21T22:49:38.113Z,5.70
2023-10-21T22:52:06.425Z,7.40
2023-10-21T22:54:34.520Z,5.90
2023-10-21T22:57:03.060Z,6.80
2023-10-21T22:59:31.166Z,6.60
2023-10-21T23:02:00.601Z,6.40
2023-10-21T23:04:28.687Z,6.30
2023-10-21T23:06:58.004Z,5.10
2023-10-21T23:09:30.436Z,5.40
2023-10-21T23:11:58.557Z,9.50
2023-10-21T23:14:28.274Z,8.50
2023-10-21T23:16:56.293Z,6.50
2023-10-21T23:19:24.667Z,6.20
2023-10-21T23:21:52.790Z,5.00
2023-10-21T23:24:20.804Z,5.60
2023-10-21T23:26:49.191Z,5.90
2023-10-21T23:29:17.333Z,4.70
2023-10-21T23:31:45.536Z,3.00
2023-10-21T23:34:13.642Z,3.10
2023-10-21T23:36:41.848Z,2.80
2023-10-21T23:39:13.956Z,2.80
2023-10-21T23:41:42.316Z,2.50
2023-10-21T23:44:10.439Z,1.80
2023-10-21T23:46:38.754Z,1.70
2023-10-21T23:49:07.342Z,1.10
2023-10-21T23:51:35.770Z,1.70
2023-10-21T23:54:04.232Z,1.10
2023-10-21T23:56:32.385Z,0.90
2023-10-21T23:59:01.855Z,0.60
